Latest Weather Observations for High Range (Wanganderry)

IDN60801

Issued at 7:12 pm EDT Friday 23 October 2020 (issued every 10 minutes, with the page automatically refreshed every 10 minutes)

About weather observations | Map of weather stations | Latest weather observations for NSW | Other Formats
Station Details ID: 068262 Name: HIGH RANGE AWS (WANGANDERRY) Lat: -34.33 Lon: 150.27 Height: 813.6 m
Data from the previous 72 hours. | See also: Recent months for locations in New South Wales
Date/Time
EDT
Temp
°C
App
Temp
°C
Dew
Point
°C
Rel
Hum
%
Delta-T
°C
Wind Press
QNH
hPa
Press
MSL
hPa
Rain since
9am
mm
Dir  Spd
km/h
Gust
km/h
Spd
kts
Gust
kts
23/07:00pm 19.0 15.0 13.0 68 3.5 NE 26 32 14 17 1011.2 1009.3 0.0
23/06:30pm 20.0 16.5 12.3 61 4.5 NE 22 32 12 17 1010.9 1009.0 0.0
23/06:00pm 20.7 17.3 11.3 55 5.4 NE 20 28 11 15 1010.7 1008.8 0.0
23/05:30pm 21.8 17.3 8.7 43 7.2 NE 22 33 12 18 1010.6 1008.7 0.0
23/05:00pm 22.8 19.2 9.9 44 7.3 NE 19 32 10 17 1010.7 1008.8 0.0
23/04:30pm 22.6 18.5 10.1 45 7.1 NE 22 33 12 18 1010.9 1009.0 0.0
23/04:00pm 23.2 19.6 10.6 45 7.2 NE 20 30 11 16 1011.2 1009.3 0.0
23/03:30pm 23.7 20.7 12.4 49 6.7 NE 20 30 11 16 1011.8 1009.9 0.0
23/03:00pm 22.8 18.9 10.9 47 6.9 NE 22 28 12 15 1012.1 1010.2 0.0
23/02:30pm 22.5 18.2 10.6 47 6.8 NE 24 32 13 17 1012.3 1010.4 0.0
23/02:00pm 23.2 19.2 10.3 44 7.4 NNE 22 30 12 16 1012.7 1010.9 0.0
23/01:30pm 24.4 20.8 9.9 40 8.3 NNE 19 30 10 16 1013.4 1011.5 0.0
23/01:00pm 24.1 20.7 10.4 42 7.9 NNE 19 32 10 17 1013.9 1012.1 0.0
23/12:30pm 23.1 17.8 6.8 35 8.7 NNE 24 33 13 18 1014.1 1012.3 0.0
23/12:00pm 22.8 18.9 8.5 40 7.9 NNE 19 30 10 16 1014.6 1012.7 0.0
23/11:30am 22.1 18.4 9.3 44 7.1 NNE 19 30 10 16 1014.9 1013.1 0.0
23/11:00am 20.7 16.7 8.4 45 6.7 NNE 19 26 10 14 1015.0 1013.2 0.0
23/10:30am 20.8 14.8 7.1 41 7.3 N 28 37 15 20 1015.2 1013.4 0.0
23/10:00am 20.8 16.0 7.4 42 7.2 N 22 30 12 16 1015.4 1013.6 0.0
23/09:30am 19.7 14.1 7.1 44 6.7 N 26 33 14 18 1015.4 1013.6 0.0
23/09:00am 18.6 14.6 9.1 54 5.2 N 20 32 11 17 1015.8 1014.0 0.0
23/08:30am 17.4 14.9 13.5 78 2.3 NNE 19 28 10 15 1015.8 1014.0 0.0
23/08:00am 14.6 12.9 14.6 100 0.0 NNE 17 22 9 12 1015.7 1013.8 0.0
23/07:30am 13.0 11.1 13.0 100 0.0 NNE 15 19 8 10 1015.5 1013.7 0.0
23/07:00am 12.5 10.8 12.5 100 0.0 NNE 13 17 7 9 1015.4 1013.6 0.0
23/06:30am 12.6 10.9 12.6 100 0.0 NNE 13 15 7 8 1015.1 1013.3 0.0
23/06:00am 12.8 10.4 12.8 100 0.0 NNE 17 20 9 11 1014.8 1013.0 0.0
23/05:30am 12.8 10.8 12.8 100 0.0 NNE 15 19 8 10 1015.0 1013.2 0.0
23/05:00am 12.9 11.0 12.9 100 0.0 N 15 19 8 10 1015.0 1013.2 0.0
23/04:30am 12.9 10.6 12.9 100 0.0 NNE 17 20 9 11 1014.4 1012.5 0.0
23/04:00am 13.1 11.2 13.1 100 0.0 NNE 15 19 8 10 1014.4 1012.5 0.0
23/03:30am 13.2 11.4 13.2 100 0.0 NNE 15 19 8 10 1014.8 1013.0 0.0
23/03:00am 13.3 11.5 13.3 100 0.0 NNE 15 19 8 10 1014.6 1012.7 0.0
23/02:30am 13.4 11.2 13.4 100 0.0 NNE 17 24 9 13 1014.9 1013.1 0.0
23/02:00am 13.4 10.9 13.4 100 0.0 NNE 19 24 10 13 1015.3 1013.5 0.0
23/01:30am 13.3 11.1 13.3 100 0.0 NNE 17 22 9 12 1015.8 1014.0 0.0
23/01:00am 13.3 11.1 13.3 100 0.0 NNE 17 20 9 11 1016.1 1014.3 0.0
23/12:30am 13.6 11.1 13.6 100 0.0 NNE 19 22 10 12 1016.2 1014.4 0.0
23/12:00am 13.6 11.1 13.6 100 0.0 NNE 19 24 10 13 1016.5 1014.7 0.0
 
Date/Time
EDT
Temp
°C
App
Temp
°C
Dew
Point
°C
Rel
Hum
%
Delta-T
°C
Wind Press
QNH
hPa
Press
MSL
hPa
Rain since
9am
mm
Dir  Spd
km/h
Gust
km/h
Spd
kts
Gust
kts
22/11:30pm 13.6 11.5 13.6 100 0.0 NNE 17 24 9 13 1016.8 1015.1 0.0
22/11:00pm 13.5 11.0 13.5 100 0.0 NNE 19 22 10 12 1016.5 1014.7 0.0
22/10:30pm 13.7 11.3 13.7 100 0.0 NNE 19 24 10 13 1016.8 1015.1 0.0
22/10:00pm 13.9 11.5 13.9 100 0.0 NNE 19 22 10 12 1017.2 1015.4 0.0
22/09:30pm 13.9 11.0 13.9 100 0.0 NNE 22 26 12 14 1017.2 1015.4 0.0
22/09:00pm 13.9 11.5 13.9 100 0.0 NE 19 22 10 12 1017.2 1015.4 0.0
22/08:30pm 14.3 11.8 14.0 98 0.2 NE 20 26 11 14 1016.7 1014.9 0.0
22/08:00pm 14.7 11.3 12.6 87 1.2 NE 22 28 12 15 1016.3 1014.5 0.0
22/07:30pm 15.7 11.7 11.7 77 2.3 NE 24 32 13 17 1016.0 1014.2 0.0
22/07:00pm 16.4 11.8 11.1 71 3.0 NE 26 32 14 17 1015.7 1013.8 0.0
22/06:30pm 17.4 13.9 11.0 66 3.6 NE 20 26 11 14 1015.3 1013.5 0.0
22/06:00pm 18.3 14.2 10.2 59 4.5 NNE 22 28 12 15 1014.9 1013.1 0.0
22/05:30pm 19.1 14.8 9.3 53 5.4 NNE 22 32 12 17 1014.7 1012.9 0.0
22/05:00pm 19.3 15.1 9.8 54 5.3 NNE 22 30 12 16 1014.5 1012.6 0.0
22/04:30pm 20.3 16.1 9.8 51 5.9 NNE 22 35 12 19 1014.2 1012.4 0.0
22/04:00pm 20.8 16.4 9.1 47 6.5 NNE 22 32 12 17 1014.1 1012.3 0.0
22/03:30pm 21.5 17.2 9.4 46 6.7 NE 22 33 12 18 1014.2 1012.4 0.0
22/03:00pm 20.0 16.3 9.6 51 5.8 NNE 19 26 10 14 1014.8 1013.0 0.0
22/02:30pm 22.0 18.2 9.2 44 7.1 NNE 19 33 10 18 1015.0 1013.2 0.0
22/02:00pm 21.8 17.4 7.2 39 7.8 NNE 20 30 11 16 1015.2 1013.4 0.0
22/01:30pm 21.5 17.7 7.7 41 7.5 N 17 30 9 16 1015.5 1013.7 0.0
22/01:00pm 21.8 18.7 10.3 48 6.5 NE 17 24 9 13 1015.5 1013.7 0.0
22/12:30pm 21.1 18.2 10.9 52 5.8 N 17 22 9 12 1016.0 1014.2 0.0
22/12:00pm 20.7 18.3 11.3 55 5.4 N 15 24 8 13 1016.2 1014.4 0.0
22/11:30am 20.5 18.8 12.5 60 4.7 N 13 19 7 10 1016.6 1014.8 0.0
22/11:00am 19.1 16.7 10.1 56 5.0 N 13 19 7 10 1016.8 1015.1 0.0
22/10:30am 19.6 18.9 13.3 67 3.7 NNE 9 15 5 8 1017.1 1015.3 0.0
22/10:00am 16.9 16.6 13.4 80 2.0 NNE 7 9 4 5 1017.3 1015.5 0.0
22/09:30am 16.1 16.1 13.6 85 1.5 NNE 6 6 3 3 1017.3 1015.5 0.0
22/09:00am 15.1 14.5 12.4 84 1.5 NNE 7 9 4 5 1017.2 1015.4 0.0
22/08:30am 14.8 14.0 11.8 82 1.7 NNE 7 9 4 5 1016.9 1015.2 0.0
22/08:00am 14.4 13.6 11.7 84 1.5 NNE 7 9 4 5 1016.7 1014.9 0.0
22/07:30am 14.0 13.3 13.1 94 0.5 NNE 9 13 5 7 1016.5 1014.7 0.0
22/07:00am 13.1 12.4 13.1 100 0.0 NNE 9 15 5 8 1016.2 1014.4 0.0
22/06:30am 12.4 11.8 12.4 100 0.0 NNE 7 9 4 5 1016.0 1014.2 0.0
22/06:00am 12.7 12.4 12.7 100 0.0 NNW 6 7 3 4 1015.5 1013.7 0.0
22/05:30am 13.6 13.4 13.6 100 0.0 NNW 7 11 4 6 1015.1 1013.3 0.0
22/05:00am 14.2 12.6 14.0 99 0.1 NNW 15 19 8 10 1014.8 1013.0 0.0
22/04:30am 13.9 12.3 13.9 100 0.0 N 15 17 8 9 1014.8 1013.0 0.0
22/04:00am 13.9 12.7 13.9 100 0.0 N 13 17 7 9 1014.7 1012.9 0.0
22/03:30am 13.7 11.6 13.7 100 0.0 NNW 17 20 9 11 1014.8 1013.0 0.0
22/03:00am 12.1 11.0 12.1 100 0.0 NNE 9 11 5 6 1015.1 1013.3 0.0
22/02:30am 11.8 11.0 11.8 100 0.0 NNE 7 9 4 5 1015.3 1013.5 0.0
22/02:00am 11.8 10.7 11.8 100 0.0 NNE 9 13 5 7 1015.7 1013.8 0.0
22/01:30am 12.0 10.9 12.0 100 0.0 NNE 9 11 5 6 1016.1 1014.3 0.0
22/01:00am 12.1 10.7 12.1 100 0.0 NNE 11 13 6 7 1016.3 1014.5 0.0
22/12:30am 12.2 10.4 12.2 100 0.0 NNE 13 15 7 8 1016.3 1014.5 0.0
22/12:00am 12.4 10.3 12.4 100 0.0 NNE 15 17 8 9 1016.4 1014.6 0.0
 
Date/Time
EDT
Temp
°C
App
Temp
°C
Dew
Point
°C
Rel
Hum
%
Delta-T
°C
Wind Press
QNH
hPa
Press
MSL
hPa
Rain since
9am
mm
Dir  Spd
km/h
Gust
km/h
Spd
kts
Gust
kts
21/11:30pm 12.3 10.6 12.3 100 0.0 NNE 13 17 7 9 1016.3 1014.5 0.0
21/11:00pm 12.4 9.9 12.4 100 0.0 NE 17 19 9 10 1016.3 1014.5 0.0
21/10:30pm 12.8 10.4 12.8 100 0.0 NE 17 22 9 12 1016.4 1014.6 0.0
21/10:00pm 13.3 11.1 13.3 100 0.0 NE 17 19 9 10 1016.4 1014.6 0.0
21/09:30pm 13.9 11.9 13.9 100 0.0 NNE 17 20 9 11 1016.2 1014.4 0.0
21/09:00pm 14.4 12.5 14.2 99 0.1 NE 17 20 9 11 1016.0 1014.2 0.0
21/08:30pm 15.2 13.5 13.7 91 0.9 NNE 15 19 8 10 1015.7 1013.8 0.0
21/08:00pm 15.8 13.6 13.3 85 1.5 NNE 17 20 9 11 1015.3 1013.5 0.0
21/07:30pm 16.1 13.0 11.7 75 2.5 NE 19 26 10 14 1015.1 1013.3 0.0
21/07:00pm 17.2 13.7 8.9 58 4.5 NNE 17 20 9 11 1014.7 1012.9 0.0
21/06:30pm 17.6 15.4 9.2 58 4.6 NNE 11 17 6 9 1014.7 1012.9 0.0
21/06:00pm 17.9 14.5 9.3 57 4.7 N 17 20 9 11 1014.6 1012.7 0.0
21/05:30pm 18.6 15.3 9.4 55 5.0 N 17 24 9 13 1014.5 1012.6 0.0
21/05:00pm 19.6 15.7 8.6 49 6.0 NNE 19 26 10 14 1014.4 1012.5 0.0
21/04:30pm 19.8 16.0 9.7 52 5.6 N 20 28 11 15 1014.4 1012.5 0.0
21/04:00pm 19.1 15.0 8.7 51 5.6 NNW 20 24 11 13 1014.7 1012.9 0.0
21/03:30pm 21.2 18.0 9.8 48 6.4 NNE 17 30 9 16 1014.9 1013.1 0.0
21/03:00pm 21.3 18.3 10.5 50 6.1 NNE 17 24 9 13 1015.1 1013.3 0.0
21/02:30pm 21.1 18.6 9.7 48 6.4 N 13 26 7 14 1015.4 1013.6 0.0
21/02:00pm 20.4 17.4 10.8 54 5.4 NNE 17 24 9 13 1015.8 1014.0 0.0
21/01:30pm 20.0 17.2 9.9 52 5.6 NNE 15 26 8 14 1016.1 1014.3 0.0
21/01:00pm 20.2 17.2 10.6 54 5.4 N 17 22 9 12 1016.3 1014.5 0.0
21/12:30pm 21.1 18.9 12.0 56 5.3 NNE 15 20 8 11 1016.5 1014.7 0.0
21/12:00pm 20.0 17.6 11.5 58 4.9 NNE 15 22 8 12 1016.9 1015.2 0.0
21/11:30am 19.1 16.2 10.9 59 4.6 NNE 17 24 9 13 1017.4 1015.6 0.0
21/11:00am 18.0 14.1 10.9 63 4.0 NNE 22 30 12 16 1017.8 1016.0 0.0
21/10:30am 16.7 12.2 9.9 64 3.7 N 24 32 13 17 1017.9 1016.2 0.0
21/10:00am 15.9 10.8 9.3 65 3.6 NNE 26 37 14 20 1018.0 1016.3 0.0
21/09:30am 16.1 12.9 11.9 76 2.4 N 20 28 11 15 1018.1 1016.4 0.0
21/09:00am 14.3 11.8 13.5 95 0.5 NNE 19 26 10 14 1018.1 1016.4 0.0
21/08:30am 12.7 10.7 12.7 100 0.0 NNE 15 19 8 10 1018.1 1016.4 0.0
21/08:00am 10.7 8.1 10.7 100 0.0 NNE 15 17 8 9 1018.0 1016.3 0.0
21/07:30am 10.3 7.2 10.3 100 0.0 NNE 17 20 9 11 1017.7 1015.9 0.0
21/07:00am 10.1 6.6 10.1 100 0.0 NNE 19 22 10 12 1017.5 1015.7 0.0
21/06:30am 9.9 6.1 9.9 100 0.0 NNE 20 22 11 12 1017.2 1015.4 0.0
21/06:00am 9.9 6.7 9.9 100 0.0 NNE 17 20 9 11 1016.8 1015.1 0.0
21/05:30am 10.1 6.9 10.1 100 0.0 NNE 17 20 9 11 1016.6 1014.8 0.0
21/05:00am 10.2 7.1 10.2 100 0.0 NNE 17 19 9 10 1016.6 1014.8 0.0
21/04:30am 10.3 7.6 10.3 100 0.0 NNE 15 17 8 9 1016.6 1014.8 0.0
21/04:00am 10.3 7.6 10.3 100 0.0 NNE 15 17 8 9 1016.6 1014.8 0.0
21/03:30am 10.2 7.1 10.2 100 0.0 NNE 17 22 9 12 1016.6 1014.8 0.0
21/03:00am 10.1 6.9 10.1 100 0.0 NNE 17 20 9 11 1016.7 1014.9 0.0
21/02:30am 10.2 7.5 10.2 100 0.0 NNE 15 20 8 11 1017.1 1015.3 0.0
21/02:00am 10.6 8.0 10.6 100 0.0 NNE 15 19 8 10 1017.4 1015.6 0.0
21/01:30am 10.9 8.0 10.9 100 0.0 NNE 17 20 9 11 1017.6 1015.8 0.0
21/01:00am 11.0 7.5 11.0 100 0.0 NNE 20 26 11 14 1017.9 1016.2 0.0
21/12:30am 11.1 7.9 11.1 100 0.0 NNE 19 28 10 15 1018.0 1016.3 0.0
21/12:00am 11.0 8.1 11.0 100 0.0 NNE 17 24 9 13 1018.4 1016.6 0.0
 
Date/Time
EDT
Temp
°C
App
Temp
°C
Dew
Point
°C
Rel
Hum
%
Delta-T
°C
Wind Press
QNH
hPa
Press
MSL
hPa
Rain since
9am
mm
Dir  Spd
km/h
Gust
km/h
Spd
kts
Gust
kts
20/11:30pm 11.1 8.2 11.1 100 0.0 NNE 17 22 9 12 1018.4 1016.6 0.0
20/11:00pm 11.2 7.4 11.2 100 0.0 NE 22 28 12 15 1018.5 1016.7 0.0
20/10:30pm 11.4 8.0 11.4 100 0.0 NNE 20 24 11 13 1018.6 1016.8 0.0
20/10:00pm 11.6 8.3 11.6 100 0.0 NE 20 24 11 13 1018.7 1016.9 0.0
20/09:30pm 11.8 8.2 11.8 100 0.0 NE 22 30 12 16 1018.7 1016.9 0.0
20/09:00pm 11.9 8.9 11.9 100 0.0 NE 19 24 10 13 1018.7 1016.9 0.0
20/08:30pm 12.2 9.1 12.2 100 0.0 NE 20 26 11 14 1018.6 1016.8 0.0
20/08:00pm 12.3 9.2 12.3 100 0.0 NE 20 26 11 14 1018.1 1016.4 0.0
20/07:30pm 12.4 9.0 12.4 100 0.0 NE 22 28 12 15 1017.8 1016.0 0.0

Other formats

Comma delimited format used in spreadsheet applications
http://www.bom.gov.au/fwo/IDN60801/IDN60801.99742.axf

JavaScript Object Notation format (JSON) in row-major order
http://www.bom.gov.au/fwo/IDN60801/IDN60801.99742.json

Data quality

Most of these data are generated automatically and are frequently updated. Quality checks on data are not normally performed. It is possible for incorrect values to appear. Refer to information at About Latest Weather Observations and please check the disclaimer before using these data.